Time;durP1;ratioP1;P1;durP2;ratioP2;P2;SDS_P1;SDS_P2;PMS_P1;PMS_P2;Temp;Humidity;BMP_temperature;BMP_pressure;BME280_temperature;BME280_humidity;BME280_pressure;Samples;Min_cycle;Max_cycle;Signal;HPM_P1;HPM_P2
2022/03/18 00:02:22;;;;;;;15.73;9.40;;;3.20;99.90;;;;;;5090173;28;20241;-83
2022/03/18 00:04:50;;;;;;;27.67;19.13;;;3.20;99.90;;;;;;5080541;28;20305;-82
2022/03/18 00:07:17;;;;;;;35.37;21.30;;;3.20;99.90;;;;;;5081875;28;20198;-83
2022/03/18 00:09:46;;;;;;;49.67;31.27;;;3.10;99.90;;;;;;5087561;28;20210;-83
2022/03/18 00:12:13;;;;;;;44.13;26.17;;;3.00;99.90;;;;;;5085508;28;20232;-83
2022/03/18 00:14:40;;;;;;;38.50;19.97;;;2.80;99.90;;;;;;5092136;28;20695;-83
2022/03/18 00:17:08;;;;;;;30.63;15.77;;;3.00;99.90;;;;;;5086876;28;20650;-83
2022/03/18 00:19:35;;;;;;;13.13;8.60;;;3.20;99.90;;;;;;5081072;28;20625;-83
2022/03/18 00:22:02;;;;;;;10.33;5.57;;;3.10;99.90;;;;;;5098991;28;20267;-82
2022/03/18 00:24:31;;;;;;;17.17;11.77;;;3.00;99.90;;;;;;5081697;28;20638;-83
2022/03/18 00:27:00;;;;;;;17.50;8.87;;;3.30;99.90;;;;;;5085523;28;20202;-83
2022/03/18 00:29:27;;;;;;;11.97;6.40;;;3.00;99.90;;;;;;5077571;28;20248;-83
2022/03/18 00:31:55;;;;;;;8.30;3.57;;;2.90;99.90;;;;;;5081015;28;20281;-83
2022/03/18 00:34:22;;;;;;;6.63;2.60;;;3.00;99.90;;;;;;5085076;28;20205;-82
2022/03/18 00:36:49;;;;;;;7.67;2.57;;;3.10;99.90;;;;;;5089680;28;20214;-83
2022/03/18 00:39:16;;;;;;;4.97;2.63;;;2.80;99.90;;;;;;5090651;28;20230;-83
2022/03/18 00:41:43;;;;;;;6.83;2.60;;;2.90;99.90;;;;;;5089224;28;20284;-83
2022/03/18 00:44:11;;;;;;;6.30;2.33;;;2.90;99.90;;;;;;5074949;28;20240;-82
2022/03/18 00:46:38;;;;;;;6.87;2.70;;;2.70;99.90;;;;;;5074743;28;20201;-82
2022/03/18 00:52:07;;;;;;;4.67;2.40;;;2.60;99.90;;;;;;5015371;28;20193;-83
2022/03/18 00:54:35;;;;;;;4.67;2.10;;;2.30;99.90;;;;;;5019701;28;20762;-83
2022/03/18 00:57:03;;;;;;;4.30;2.63;;;2.30;99.90;;;;;;5022958;28;20291;-83
2022/03/18 00:59:32;;;;;;;6.87;2.30;;;2.30;99.90;;;;;;5025440;28;20225;-83
2022/03/18 01:01:59;;;;;;;7.30;2.80;;;2.60;99.90;;;;;;5031167;28;20227;-82
2022/03/18 01:04:32;;;;;;;6.83;2.67;;;2.30;99.90;;;;;;5010508;28;20252;-83
2022/03/18 01:06:59;;;;;;;9.67;2.90;;;2.70;99.90;;;;;;5022597;28;20212;-83
2022/03/18 01:09:27;;;;;;;9.50;2.63;;;2.70;99.90;;;;;;5022357;28;20253;-83
2022/03/18 01:11:55;;;;;;;6.97;2.57;;;2.50;99.90;;;;;;5008584;28;20291;-82
2022/03/18 01:14:24;;;;;;;8.60;2.70;;;2.60;99.90;;;;;;5027881;28;20212;-82
2022/03/18 01:16:52;;;;;;;6.93;2.43;;;2.40;99.90;;;;;;5032240;28;20238;-82
2022/03/18 01:19:19;;;;;;;6.77;2.17;;;2.70;99.90;;;;;;5026094;28;20234;-83
2022/03/18 01:21:46;;;;;;;7.77;2.40;;;2.50;99.90;;;;;;5014827;28;20696;-83
2022/03/18 01:24:13;;;;;;;7.20;2.70;;;2.20;99.90;;;;;;5010277;28;20325;-83
2022/03/18 01:26:40;;;;;;;5.13;2.27;;;2.20;99.90;;;;;;5021615;28;20225;-82
2022/03/18 01:29:08;;;;;;;5.63;2.23;;;2.50;99.90;;;;;;5056925;28;20195;-82
2022/03/18 01:31:36;;;;;;;6.20;2.70;;;2.50;99.90;;;;;;5091094;28;20614;-83
2022/03/18 01:34:04;;;;;;;6.63;2.67;;;2.30;99.90;;;;;;5085130;28;20284;-83
2022/03/18 01:36:31;;;;;;;6.73;2.27;;;1.90;99.90;;;;;;5091349;28;20526;-82
2022/03/18 01:38:59;;;;;;;7.80;2.43;;;1.70;99.90;;;;;;5085473;28;20715;-82
2022/03/18 01:41:26;;;;;;;4.23;2.40;;;1.70;99.90;;;;;;5093278;28;20235;-83
2022/03/18 01:43:53;;;;;;;6.77;2.70;;;1.90;99.90;;;;;;5089274;28;20262;-82
2022/03/18 01:46:21;;;;;;;8.60;2.43;;;1.70;99.90;;;;;;5093148;28;20221;-83
2022/03/18 01:48:48;;;;;;;6.33;2.33;;;1.60;99.90;;;;;;5109587;28;20283;-82
2022/03/18 01:51:17;;;;;;;7.13;2.43;;;1.90;99.90;;;;;;5114311;28;20231;-83
2022/03/18 01:53:46;;;;;;;7.53;2.77;;;1.80;99.90;;;;;;5075138;28;20266;-82
2022/03/18 01:56:14;;;;;;;5.40;2.30;;;1.60;99.90;;;;;;5082906;28;20202;-82
2022/03/18 01:58:41;;;;;;;8.07;2.40;;;1.40;99.90;;;;;;5092197;28;20541;-82
2022/03/18 02:01:08;;;;;;;4.63;2.30;;;1.60;99.90;;;;;;5092774;28;20193;-82
2022/03/18 02:03:36;;;;;;;6.20;2.43;;;1.60;99.90;;;;;;5091689;28;20229;-82
2022/03/18 02:06:03;;;;;;;6.77;2.80;;;1.60;99.90;;;;;;5088383;28;20220;-82
2022/03/18 02:08:34;;;;;;;7.30;2.40;;;1.60;99.90;;;;;;5078082;28;20230;-82
2022/03/18 02:11:02;;;;;;;6.60;2.50;;;1.60;99.90;;;;;;5100498;28;20196;-82
2022/03/18 02:13:30;;;;;;;6.97;2.50;;;1.30;99.90;;;;;;5101460;28;20592;-83
2022/03/18 02:16:02;;;;;;;4.10;2.30;;;1.40;99.90;;;;;;5097806;28;20281;-83
2022/03/18 02:18:28;;;;;;;7.73;2.43;;;1.60;99.90;;;;;;5084473;28;20295;-82
2022/03/18 02:20:56;;;;;;;7.63;2.60;;;1.60;99.90;;;;;;5083480;28;20662;-83
2022/03/18 02:23:24;;;;;;;6.30;2.43;;;1.50;99.90;;;;;;5078172;28;20621;-82
2022/03/18 02:25:51;;;;;;;7.60;2.30;;;1.60;99.90;;;;;;5098055;28;20641;-83
2022/03/18 02:28:19;;;;;;;6.07;2.70;;;1.20;99.90;;;;;;5114437;28;20223;-83
2022/03/18 02:30:46;;;;;;;7.13;2.70;;;1.30;99.90;;;;;;5095785;27;20200;-83
2022/03/18 02:33:13;;;;;;;6.07;2.63;;;1.10;99.90;;;;;;5083485;28;20257;-83
2022/03/18 02:35:40;;;;;;;6.43;2.40;;;1.10;99.90;;;;;;5088205;28;20234;-82
2022/03/18 02:38:07;;;;;;;8.90;3.23;;;1.10;99.90;;;;;;5097335;28;20246;-83
2022/03/18 02:40:35;;;;;;;8.37;2.27;;;1.10;99.90;;;;;;5083622;28;20299;-83
2022/03/18 02:43:02;;;;;;;5.37;2.37;;;1.10;99.90;;;;;;5076702;28;20196;-83
2022/03/18 02:45:31;;;;;;;6.20;2.30;;;1.40;99.90;;;;;;5089440;28;20335;-83
2022/03/18 02:47:58;;;;;;;6.37;2.47;;;1.30;99.90;;;;;;5082052;28;20203;-82
2022/03/18 02:50:25;;;;;;;8.70;2.90;;;1.20;99.90;;;;;;5082936;28;20219;-83
2022/03/18 02:52:52;;;;;;;8.47;2.60;;;1.80;99.90;;;;;;5082901;28;20288;-82
2022/03/18 02:55:19;;;;;;;5.67;2.30;;;1.60;99.90;;;;;;5091959;28;20195;-82
2022/03/18 02:57:48;;;;;;;5.93;2.40;;;1.60;99.90;;;;;;5075859;28;20291;-83
2022/03/18 03:00:16;;;;;;;5.07;2.60;;;1.40;99.90;;;;;;5090682;28;20624;-83
2022/03/18 03:02:44;;;;;;;6.50;2.43;;;1.40;99.90;;;;;;5093052;28;20650;-83
2022/03/18 03:08:01;;;;;;;8.60;2.90;;;1.80;99.90;;;;;;5082424;28;20193;-83
2022/03/18 03:10:29;;;;;;;10.57;2.90;;;1.70;99.90;;;;;;5089230;28;20272;-82
2022/03/18 03:12:58;;;;;;;5.70;2.50;;;1.90;99.90;;;;;;5082854;28;20202;-82
2022/03/18 03:15:25;;;;;;;7.50;2.57;;;1.50;99.90;;;;;;5075980;28;20191;-84
2022/03/18 03:17:52;;;;;;;7.50;2.60;;;1.80;99.90;;;;;;5090740;28;20241;-83
2022/03/18 03:20:19;;;;;;;6.63;2.60;;;1.50;99.90;;;;;;5092399;28;20238;-82
2022/03/18 03:22:46;;;;;;;5.17;2.37;;;1.30;99.90;;;;;;5080070;28;20332;-83
2022/03/18 03:25:13;;;;;;;7.03;2.83;;;1.50;99.90;;;;;;5090569;28;20317;-82
2022/03/18 03:27:40;;;;;;;6.23;2.80;;;1.30;99.90;;;;;;5095044;28;20274;-82
2022/03/18 03:30:10;;;;;;;5.20;2.73;;;1.50;99.90;;;;;;5082688;28;20304;-82
2022/03/18 03:32:38;;;;;;;9.13;2.90;;;1.40;99.90;;;;;;5072504;28;20227;-82
2022/03/18 03:35:06;;;;;;;9.07;2.97;;;1.50;99.90;;;;;;5080369;28;20226;-82
2022/03/18 03:37:33;;;;;;;6.93;2.73;;;1.30;99.90;;;;;;5081765;28;20685;-82
2022/03/18 03:40:00;;;;;;;8.50;2.90;;;1.40;99.90;;;;;;5092585;28;20222;-82
2022/03/18 03:42:27;;;;;;;9.90;2.90;;;1.60;99.90;;;;;;5091002;28;20198;-82
2022/03/18 03:44:54;;;;;;;6.50;2.60;;;1.10;99.90;;;;;;5082925;28;20313;-82
2022/03/18 03:47:22;;;;;;;8.43;2.77;;;1.20;99.90;;;;;;5089165;28;20227;-82
2022/03/18 03:49:49;;;;;;;7.77;3.10;;;1.50;99.90;;;;;;5100801;28;20226;-83
2022/03/18 03:52:16;;;;;;;9.93;2.83;;;1.10;99.90;;;;;;5081946;28;20266;-82
2022/03/18 03:54:44;;;;;;;9.03;3.73;;;1.40;99.90;;;;;;5085975;28;20258;-82
2022/03/18 03:57:11;;;;;;;9.60;2.87;;;1.30;99.90;;;;;;5094576;28;20247;-82
2022/03/18 03:59:38;;;;;;;8.30;2.90;;;1.10;99.90;;;;;;5087792;28;20245;-82
2022/03/18 04:02:05;;;;;;;5.20;2.63;;;1.30;99.90;;;;;;5073970;28;20286;-82
2022/03/18 04:04:33;;;;;;;8.43;3.40;;;1.30;99.90;;;;;;5088108;28;20195;-82
2022/03/18 04:07:01;;;;;;;9.10;2.80;;;1.30;99.90;;;;;;5071628;28;20261;-82
2022/03/18 04:09:28;;;;;;;10.63;3.13;;;1.30;99.90;;;;;;5087697;28;20202;-82
2022/03/18 04:11:55;;;;;;;7.43;3.30;;;1.30;99.90;;;;;;5091578;28;20237;-82
2022/03/18 04:14:22;;;;;;;7.77;3.40;;;1.70;99.90;;;;;;5091431;28;20237;-83
2022/03/18 04:16:49;;;;;;;12.67;4.30;;;1.90;99.90;;;;;;5091355;28;20289;-82
2022/03/18 04:19:17;;;;;;;10.57;4.10;;;2.00;99.90;;;;;;5098495;28;20291;-81
2022/03/18 04:21:46;;;;;;;10.97;4.17;;;2.50;99.90;;;;;;5111841;28;20224;-82
2022/03/18 04:24:13;;;;;;;10.97;4.40;;;2.40;99.90;;;;;;5080817;28;20201;-82
2022/03/18 04:26:40;;;;;;;11.40;4.37;;;2.80;99.90;;;;;;5087468;28;20296;-83
2022/03/18 04:29:10;;;;;;;11.13;4.17;;;2.70;99.90;;;;;;5089579;28;20205;-81
2022/03/18 04:31:37;;;;;;;11.27;4.30;;;2.80;99.90;;;;;;5074215;28;20198;-83
2022/03/18 04:34:04;;;;;;;10.93;4.20;;;3.00;99.90;;;;;;5075688;28;20251;-81
2022/03/18 04:36:31;;;;;;;10.80;4.20;;;3.40;99.90;;;;;;5095378;28;20205;-82
2022/03/18 04:39:01;;;;;;;14.83;3.87;;;3.10;99.90;;;;;;5104452;28;20281;-81
2022/03/18 04:41:28;;;;;;;17.07;4.37;;;3.30;99.90;;;;;;5102371;28;20209;-81
2022/03/18 04:43:55;;;;;;;11.17;3.70;;;3.40;99.90;;;;;;5091375;28;20284;-82
2022/03/18 04:46:22;;;;;;;9.63;4.13;;;3.40;99.90;;;;;;5074559;28;20678;-81
2022/03/18 04:48:49;;;;;;;11.13;4.33;;;3.40;99.90;;;;;;5076593;28;20237;-81
2022/03/18 04:51:16;;;;;;;14.37;4.10;;;3.40;99.90;;;;;;5089989;28;20233;-83
2022/03/18 04:53:43;;;;;;;10.97;4.20;;;3.40;99.90;;;;;;5098898;28;20285;-83
2022/03/18 04:57:15;;;;;;;13.13;4.30;;;3.50;99.90;;;;;;5088530;28;20687;-83
2022/03/18 04:58:59;;;;;;;12.47;3.90;;;3.60;99.90;;;;;;5079409;28;20232;-83
2022/03/18 05:01:27;;;;;;;8.33;3.97;;;4.00;99.90;;;;;;5074613;28;20198;-83
2022/03/18 05:03:55;;;;;;;11.97;4.40;;;3.70;99.90;;;;;;5082108;28;20210;-83
2022/03/18 05:06:21;;;;;;;13.33;4.23;;;3.50;99.90;;;;;;5074832;28;20218;-83
2022/03/18 05:08:48;;;;;;;11.10;4.13;;;3.70;99.90;;;;;;5084386;28;20233;-83
2022/03/18 05:11:17;;;;;;;10.83;4.37;;;3.60;99.90;;;;;;5085804;28;20296;-82
2022/03/18 05:13:44;;;;;;;14.60;4.67;;;3.40;99.90;;;;;;5077853;28;20285;-83
2022/03/18 05:16:11;;;;;;;15.33;4.00;;;3.30;99.90;;;;;;5074453;28;20305;-83
2022/03/18 05:18:38;;;;;;;10.53;4.30;;;3.40;99.90;;;;;;5082215;28;20293;-82
2022/03/18 05:21:05;;;;;;;14.93;4.50;;;3.50;99.90;;;;;;5074593;28;20258;-83
2022/03/18 05:23:32;;;;;;;14.40;4.40;;;3.40;99.90;;;;;;5077264;28;20197;-83
2022/03/18 05:25:59;;;;;;;12.33;4.43;;;3.40;99.90;;;;;;5089686;28;20221;-83
2022/03/18 05:28:28;;;;;;;13.70;4.53;;;3.20;99.90;;;;;;5093574;28;20197;-83
2022/03/18 05:30:55;;;;;;;12.50;4.23;;;3.40;99.90;;;;;;5092196;28;20190;-83
2022/03/18 05:33:22;;;;;;;13.00;4.37;;;3.00;99.90;;;;;;5073854;28;20223;-83
2022/03/18 05:35:49;;;;;;;11.10;4.50;;;3.20;99.90;;;;;;5101507;28;20291;-83
2022/03/18 05:38:16;;;;;;;15.00;4.90;;;3.20;99.90;;;;;;5091794;28;20285;-84
2022/03/18 05:40:43;;;;;;;10.70;4.40;;;2.90;99.90;;;;;;5087704;28;20273;-82
2022/03/18 05:43:10;;;;;;;13.70;4.50;;;3.20;99.90;;;;;;5084136;28;20225;-83
2022/03/18 05:45:38;;;;;;;14.23;4.80;;;3.00;99.90;;;;;;5078156;28;20215;-82
2022/03/18 05:48:07;;;;;;;16.57;5.10;;;3.00;99.90;;;;;;5091823;28;20255;-83
2022/03/18 05:50:34;;;;;;;15.13;4.60;;;2.90;99.90;;;;;;5084005;28;20284;-83
2022/03/18 05:53:01;;;;;;;9.93;4.50;;;3.10;99.90;;;;;;5082709;28;20193;-83
2022/03/18 05:56:52;;;;;;;17.07;5.10;;;2.90;99.90;;;;;;5084915;28;20280;-83
2022/03/18 05:58:16;;;;;;;11.67;4.33;;;3.00;99.90;;;;;;5086523;28;20237;-83
2022/03/18 06:00:45;;;;;;;12.20;4.63;;;2.90;99.90;;;;;;5079699;28;20616;-82
2022/03/18 06:03:12;;;;;;;12.87;4.83;;;3.10;99.90;;;;;;5079978;28;20250;-83
2022/03/18 06:05:39;;;;;;;11.17;4.80;;;3.00;99.90;;;;;;5087649;28;20218;-84
2022/03/18 06:13:35;;;;;;;16.07;5.20;;;2.80;99.90;;;;;;5083045;28;20200;-84
2022/03/18 06:16:03;;;;;;;13.23;4.87;;;3.00;99.90;;;;;;5091610;28;20233;-82
2022/03/18 06:18:30;;;;;;;11.10;5.53;;;2.90;99.90;;;;;;5075342;28;20277;-85
2022/03/18 06:20:57;;;;;;;11.00;5.13;;;3.10;99.90;;;;;;5091442;28;20240;-81
2022/03/18 06:23:24;;;;;;;13.10;5.80;;;2.80;99.90;;;;;;5084644;28;20292;-85
2022/03/18 06:25:51;;;;;;;12.03;5.00;;;2.90;99.90;;;;;;5078437;28;20254;-83
2022/03/18 06:28:18;;;;;;;12.67;5.13;;;3.10;99.90;;;;;;5077054;28;20231;-85
2022/03/18 06:30:46;;;;;;;13.97;5.50;;;3.00;99.90;;;;;;5073863;28;20234;-81
2022/03/18 06:33:14;;;;;;;11.57;5.70;;;2.90;99.90;;;;;;5073795;28;20716;-81
2022/03/18 06:35:41;;;;;;;14.20;5.67;;;3.00;99.90;;;;;;5074729;28;20233;-81
2022/03/18 06:38:42;;;;;;;12.33;5.50;;;2.90;99.90;;;;;;5096350;28;20196;-83
2022/03/18 06:41:52;;;;;;;11.40;5.10;;;3.10;99.90;;;;;;5038398;28;21640;-82
2022/03/18 06:44:19;;;;;;;16.63;6.10;;;3.10;99.90;;;;;;5039413;28;20725;-82
2022/03/18 06:46:50;;;;;;;17.43;6.13;;;3.20;99.90;;;;;;5048623;28;20601;-81
2022/03/18 06:49:23;;;;;;;16.93;5.70;;;3.20;99.90;;;;;;5042381;28;20204;-82
2022/03/18 06:51:50;;;;;;;9.93;5.60;;;3.70;99.90;;;;;;5037761;28;20574;-80
2022/03/18 06:54:17;;;;;;;15.27;5.67;;;3.50;99.90;;;;;;5044290;28;20290;-81
2022/03/18 06:56:44;;;;;;;13.63;5.93;;;3.90;99.90;;;;;;5044894;28;20885;-81
2022/03/18 06:59:11;;;;;;;13.00;6.07;;;4.00;99.90;;;;;;5038321;28;20324;-80
2022/03/18 07:01:38;;;;;;;12.73;5.63;;;4.60;99.90;;;;;;5036374;28;20228;-80
2022/03/18 07:04:13;;;;;;;14.07;5.30;;;5.10;99.90;;;;;;5044203;28;20291;-81
2022/03/18 07:10:32;;;;;;;8.03;5.00;;;6.60;99.90;;;;;;5087101;27;20623;-80
2022/03/18 07:13:00;;;;;;;12.13;4.80;;;7.50;99.90;;;;;;5085312;28;20600;-81
2022/03/18 07:15:27;;;;;;;12.30;4.77;;;8.30;99.90;;;;;;5088250;28;20612;-80
2022/03/18 07:17:59;;;;;;;11.30;4.70;;;8.70;99.90;;;;;;5088538;28;20279;-80
2022/03/18 07:20:28;;;;;;;8.10;4.70;;;8.80;99.90;;;;;;5088738;28;20226;-81
2022/03/18 07:23:06;;;;;;;12.33;4.77;;;9.10;99.90;;;;;;5088803;28;20198;-81
2022/03/18 07:25:34;;;;;;;11.87;4.63;;;9.60;99.90;;;;;;5082766;28;20256;-81
2022/03/18 07:28:04;;;;;;;11.50;4.90;;;9.60;99.90;;;;;;5080780;28;20303;-81
2022/03/18 07:30:49;;;;;;;10.17;4.70;;;9.90;99.90;;;;;;5089114;28;20565;-82
2022/03/18 07:33:16;;;;;;;7.80;4.40;;;10.10;99.90;;;;;;5088067;28;20286;-82
2022/03/18 07:35:43;;;;;;;10.97;4.43;;;10.30;99.90;;;;;;5088102;28;20253;-82
2022/03/18 07:38:10;;;;;;;15.30;4.93;;;10.50;99.90;;;;;;5090617;28;20285;-83
2022/03/18 07:40:38;;;;;;;7.83;4.10;;;10.60;99.90;;;;;;5090334;28;20222;-83
2022/03/18 07:43:07;;;;;;;9.07;4.23;;;10.40;99.90;;;;;;5087028;28;20260;-82
2022/03/18 07:45:35;;;;;;;6.27;3.90;;;10.80;99.90;;;;;;5078950;28;20551;-83
2022/03/18 07:48:04;;;;;;;5.77;4.00;;;11.40;99.90;;;;;;5087331;28;20271;-83
2022/03/18 07:50:32;;;;;;;8.80;4.37;;;11.90;99.90;;;;;;5093602;28;20289;-83
2022/03/18 07:53:01;;;;;;;8.17;4.07;;;11.80;99.90;;;;;;5095994;28;20678;-83
2022/03/18 07:55:29;;;;;;;6.17;3.83;;;11.30;99.90;;;;;;5087485;28;20998;-83
2022/03/18 07:57:58;;;;;;;7.20;4.15;;;11.60;99.90;;;;;;5087511;28;20192;-83
2022/03/18 08:00:27;;;;;;;6.20;3.90;;;12.10;99.90;;;;;;5055967;28;20196;-83
2022/03/18 08:02:55;;;;;;;6.50;4.15;;;12.20;99.90;;;;;;5062526;28;20674;-82
2022/03/18 08:05:22;;;;;;;7.40;3.92;;;12.50;99.90;;;;;;5067817;28;20227;-83
2022/03/18 08:07:49;;;;;;;5.70;3.78;;;13.00;99.90;;;;;;5067337;28;20734;-83
2022/03/18 08:10:17;;;;;;;7.70;4.22;;;12.80;99.90;;;;;;5067282;28;20234;-83
2022/03/18 08:12:45;;;;;;;7.45;4.07;;;12.40;99.90;;;;;;5067749;28;20252;-83
2022/03/18 08:15:14;;;;;;;7.65;3.85;;;12.40;99.90;;;;;;5071634;28;20195;-83
2022/03/18 08:17:43;;;;;;;6.75;3.97;;;12.50;99.90;;;;;;5075822;28;20257;-83
2022/03/18 08:20:12;;;;;;;6.35;3.50;;;12.70;99.90;;;;;;5059664;28;20640;-82
2022/03/18 08:22:39;;;;;;;7.45;3.85;;;12.70;99.90;;;;;;5045634;28;20618;-82
2022/03/18 08:25:08;;;;;;;8.15;3.92;;;13.30;99.90;;;;;;5052153;28;20261;-83
2022/03/18 08:27:36;;;;;;;6.18;3.58;;;13.50;99.90;;;;;;5038104;28;20287;-83
2022/03/18 08:30:04;;;;;;;7.13;3.80;;;13.20;99.90;;;;;;5041399;28;20220;-83
2022/03/18 08:32:31;;;;;;;6.05;3.50;;;13.00;99.90;;;;;;5038892;28;20228;-83
2022/03/18 08:35:00;;;;;;;6.32;3.42;;;13.50;99.90;;;;;;5060355;28;20196;-83
2022/03/18 08:40:13;;;;;;;7.18;3.40;;;12.80;99.90;;;;;;5034092;28;20242;-82
2022/03/18 08:42:40;;;;;;;7.47;3.30;;;13.40;99.90;;;;;;5042300;28;20232;-82
2022/03/18 08:45:09;;;;;;;5.47;3.00;;;13.20;99.90;;;;;;5053758;28;20228;-83
2022/03/18 08:47:36;;;;;;;5.78;3.20;;;12.30;99.90;;;;;;5045848;28;20275;-83
2022/03/18 08:50:05;;;;;;;5.28;3.30;;;13.00;99.90;;;;;;5033705;28;20228;-82
2022/03/18 08:52:32;;;;;;;8.25;3.22;;;13.40;99.90;;;;;;5034121;28;20236;-83
2022/03/18 08:54:59;;;;;;;7.07;3.05;;;14.00;99.90;;;;;;5033828;28;20825;-83
2022/03/18 08:57:28;;;;;;;5.00;2.92;;;13.30;99.90;;;;;;5042607;28;20711;-84
2022/03/18 08:59:55;;;;;;;4.93;3.08;;;13.30;99.90;;;;;;5033693;28;20220;-83
2022/03/18 09:02:22;;;;;;;5.93;3.15;;;13.70;99.90;;;;;;5052274;28;20639;-82
2022/03/18 09:04:50;;;;;;;3.70;2.88;;;13.90;99.90;;;;;;5055463;28;20209;-82
2022/03/18 09:07:19;;;;;;;4.38;2.75;;;14.10;99.90;;;;;;5060205;28;20211;-83
2022/03/18 09:09:46;;;;;;;4.38;2.40;;;14.00;99.90;;;;;;5046465;28;20239;-82
2022/03/18 09:12:13;;;;;;;5.45;3.00;;;14.30;99.90;;;;;;5052798;28;20695;-83
2022/03/18 09:14:40;;;;;;;4.95;2.97;;;13.60;99.90;;;;;;5052216;28;20223;-83
2022/03/18 09:17:07;;;;;;;6.18;3.40;;;13.80;99.90;;;;;;5071688;28;20243;-82
2022/03/18 09:19:37;;;;;;;7.90;3.28;;;14.10;99.90;;;;;;5051509;28;20230;-82
2022/03/18 09:22:06;;;;;;;5.27;3.40;;;14.00;99.90;;;;;;5054238;28;20211;-82
2022/03/18 09:24:35;;;;;;;6.23;3.40;;;13.40;99.90;;;;;;5041724;28;20287;-82
2022/03/18 09:27:02;;;;;;;5.70;3.30;;;13.90;99.90;;;;;;5035219;28;20279;-82
2022/03/18 09:29:29;;;;;;;5.90;3.05;;;14.20;99.90;;;;;;5060441;28;20242;-82
2022/03/18 09:31:57;;;;;;;6.67;3.10;;;14.40;99.90;;;;;;5034564;28;20246;-82
2022/03/18 09:34:26;;;;;;;4.83;2.90;;;14.60;99.90;;;;;;5052537;28;20250;-82
2022/03/18 09:36:54;;;;;;;4.68;2.97;;;14.20;99.90;;;;;;5038488;28;20646;-83
2022/03/18 09:39:22;;;;;;;6.18;3.00;;;14.90;99.90;;;;;;5046990;28;20287;-82
2022/03/18 09:41:50;;;;;;;4.80;3.30;;;14.80;99.90;;;;;;5053107;28;20219;-82
2022/03/18 09:44:18;;;;;;;5.57;3.33;;;14.70;99.90;;;;;;5052878;28;20239;-82
2022/03/18 09:46:48;;;;;;;4.20;2.83;;;14.90;99.90;;;;;;5047737;28;20246;-82
2022/03/18 09:49:17;;;;;;;5.25;2.90;;;14.70;99.90;;;;;;5033431;28;20256;-83
2022/03/18 09:51:44;;;;;;;4.82;2.92;;;14.40;99.90;;;;;;5049733;28;20288;-82
2022/03/18 09:54:12;;;;;;;5.47;3.20;;;14.90;99.90;;;;;;5062132;28;20200;-81
2022/03/18 09:56:41;;;;;;;5.82;3.10;;;15.70;99.90;;;;;;5053014;28;20291;-81
2022/03/18 09:59:10;;;;;;;3.72;3.05;;;15.00;96.40;;;;;;5048477;28;20294;-82
2022/03/18 10:01:46;;;;;;;4.97;3.20;;;14.40;93.50;;;;;;5050725;28;20857;-81
2022/03/18 10:04:14;;;;;;;5.45;2.97;;;14.50;99.90;;;;;;5040896;28;20200;-81
2022/03/18 10:06:42;;;;;;;3.80;2.78;;;15.60;96.90;;;;;;5052690;28;20203;-82
2022/03/18 10:09:10;;;;;;;3.65;2.97;;;14.90;86.30;;;;;;5046625;28;20336;-81
2022/03/18 10:11:40;;;;;;;4.75;2.85;;;15.10;89.60;;;;;;5052940;28;20235;-82
2022/03/18 10:14:10;;;;;;;4.97;2.78;;;14.90;73.10;;;;;;5052676;28;20199;-81
2022/03/18 10:16:38;;;;;;;5.05;2.85;;;15.20;87.80;;;;;;5032119;28;20239;-82
2022/03/18 10:19:08;;;;;;;6.00;2.92;;;15.80;89.10;;;;;;5050353;28;20345;-81
2022/03/18 10:21:49;;;;;;;5.93;2.83;;;16.20;94.30;;;;;;5032297;28;20795;-80
2022/03/18 10:24:17;;;;;;;3.95;2.70;;;16.40;79.60;;;;;;5032569;28;20298;-81
2022/03/18 10:26:44;;;;;;;6.38;3.00;;;16.10;61.60;;;;;;5034826;28;20652;-82
2022/03/18 10:29:13;;;;;;;5.55;3.00;;;15.90;70.50;;;;;;5051789;28;20306;-82
2022/03/18 10:31:45;;;;;;;5.05;2.90;;;15.70;64.30;;;;;;5045837;28;20561;-81
2022/03/18 10:37:09;;;;;;;4.95;2.85;;;17.00;86.10;;;;;;5044116;28;20294;-82
2022/03/18 10:39:39;;;;;;;5.15;3.10;;;16.70;88.20;;;;;;5059060;28;20196;-82
2022/03/18 10:42:30;;;;;;;4.97;2.92;;;16.40;90.70;;;;;;5047509;28;20227;-82
2022/03/18 10:45:00;;;;;;;3.78;2.90;;;17.10;57.40;;;;;;5040093;28;20204;-82
2022/03/18 10:47:49;;;;;;;5.05;3.00;;;17.70;77.30;;;;;;5041760;28;20228;-82
2022/03/18 10:50:24;;;;;;;5.85;3.35;;;17.90;61.90;;;;;;5050113;28;20686;-82
2022/03/18 10:53:09;;;;;;;3.70;2.90;;;17.30;54.30;;;;;;5044305;28;20287;-82
2022/03/18 10:55:38;;;;;;;6.32;3.20;;;17.30;63.10;;;;;;5039790;28;20207;-82
2022/03/18 10:58:11;;;;;;;4.35;2.65;;;17.70;49.50;;;;;;5044385;28;20203;-83
2022/03/18 11:00:41;;;;;;;4.45;2.50;;;17.90;56.30;;;;;;5041901;28;20667;-81
2022/03/18 11:03:08;;;;;;;3.38;2.42;;;18.00;53.20;;;;;;5038703;28;20192;-81
2022/03/18 11:05:36;;;;;;;3.92;2.95;;;18.00;57.30;;;;;;5053328;28;20227;-83
2022/03/18 11:08:07;;;;;;;4.60;2.63;;;18.30;55.90;;;;;;5042300;28;20270;-82
2022/03/18 11:13:24;;;;;;;6.93;2.72;;;17.10;42.00;;;;;;5043397;28;20203;-82
2022/03/18 11:15:53;;;;;;;5.15;2.78;;;17.00;40.00;;;;;;5039471;28;20200;-82
2022/03/18 11:18:20;;;;;;;3.15;2.47;;;17.30;42.50;;;;;;5040392;28;20191;-81
2022/03/18 11:20:51;;;;;;;6.43;2.85;;;17.40;41.20;;;;;;5041283;28;20231;-82
2022/03/18 11:23:20;;;;;;;3.92;2.85;;;17.80;36.70;;;;;;5047395;28;20206;-83
2022/03/18 11:25:50;;;;;;;5.82;3.03;;;18.50;32.30;;;;;;5054827;28;20290;-83
2022/03/18 11:28:19;;;;;;;3.75;2.25;;;18.10;27.20;;;;;;5053563;28;20622;-83
2022/03/18 11:30:48;;;;;;;3.35;2.30;;;17.90;13.10;;;;;;5050247;28;20255;-82
2022/03/18 11:33:23;;;;;;;3.47;2.30;;;17.40;8.70;;;;;;5060286;28;20553;-82
2022/03/18 11:36:07;;;;;;;4.22;2.53;;;18.00;26.20;;;;;;5047490;28;20227;-82
2022/03/18 11:39:02;;;;;;;5.50;2.80;;;17.60;16.30;;;;;;5035702;28;20287;-83
2022/03/18 11:41:46;;;;;;;3.30;2.63;;;16.80;22.70;;;;;;5044302;28;20212;-82
2022/03/18 11:44:46;;;;;;;3.58;2.70;;;17.60;33.10;;;;;;5038702;28;20699;-82
2022/03/18 11:47:43;;;;;;;5.00;2.88;;;17.90;15.10;;;;;;5036465;28;20231;-82
2022/03/18 11:50:38;;;;;;;4.80;2.28;;;17.10;12.30;;;;;;5043713;28;20308;-82
2022/03/18 11:53:05;;;;;;;5.25;2.50;;;17.80;19.90;;;;;;5034239;28;20232;-82
2022/03/18 11:55:32;;;;;;;4.88;2.38;;;18.40;14.80;;;;;;5037957;28;20208;-82
2022/03/18 11:57:59;;;;;;;5.35;2.28;;;18.30;11.30;;;;;;5055244;28;20279;-82
2022/03/18 12:00:43;;;;;;;3.75;2.35;;;18.60;11.70;;;;;;5054234;28;20188;-82
2022/03/18 12:03:21;;;;;;;4.32;2.20;;;18.60;5.80;;;;;;5046391;28;20236;-82
2022/03/18 12:05:58;;;;;;;3.63;2.17;;;18.40;7.00;;;;;;5055659;28;20554;-82
2022/03/18 12:09:00;;;;;;;3.67;2.40;;;17.80;1.00;;;;;;5035589;28;20224;-82
2022/03/18 12:11:36;;;;;;;4.30;2.33;;;18.00;12.20;;;;;;5036441;28;20196;-82
2022/03/18 12:14:05;;;;;;;4.00;2.53;;;17.80;12.80;;;;;;5035675;28;20291;-82
2022/03/18 12:16:32;;;;;;;4.50;2.10;;;18.00;15.30;;;;;;5040505;28;20231;-81
2022/03/18 12:19:00;;;;;;;3.75;2.30;;;18.00;16.00;;;;;;5042975;28;20687;-82
2022/03/18 12:21:37;;;;;;;3.67;2.13;;;18.10;8.90;;;;;;5052399;28;20246;-82
2022/03/18 12:24:09;;;;;;;3.55;2.38;;;18.40;7.80;;;;;;5043075;28;20253;-82
2022/03/18 12:26:37;;;;;;;4.50;2.30;;;18.80;7.30;;;;;;5048129;28;20196;-82
2022/03/18 12:29:05;;;;;;;7.78;2.13;;;19.10;3.40;;;;;;5041277;28;20197;-82
2022/03/18 12:31:33;;;;;;;3.58;2.20;;;18.20;3.30;;;;;;5056769;28;20227;-82
2022/03/18 12:34:03;;;;;;;4.03;2.15;;;18.00;4.90;;;;;;5047177;28;20256;-82
2022/03/18 12:36:31;;;;;;;2.40;1.90;;;17.90;11.30;;;;;;5047816;28;20195;-82
2022/03/18 12:39:10;;;;;;;3.22;2.00;;;18.60;3.10;;;;;;5047057;28;20231;-83
2022/03/18 12:41:37;;;;;;;4.13;2.00;;;18.20;8.90;;;;;;5037165;28;20205;-82
2022/03/18 12:44:05;;;;;;;2.95;1.33;;;17.40;1.90;;;;;;5043472;28;20227;-80
2022/03/18 12:46:33;;;;;;;2.90;1.45;;;17.10;1.00;;;;;;5040296;28;20278;-80
2022/03/18 12:49:01;;;;;;;2.58;1.45;;;17.20;1.00;;;;;;5046968;28;20666;-81
2022/03/18 12:51:28;;;;;;;3.13;1.52;;;17.50;1.00;;;;;;5053722;28;20778;-80
2022/03/18 12:53:58;;;;;;;2.63;1.88;;;17.20;1.00;;;;;;5040578;28;20313;-81
2022/03/18 12:56:30;;;;;;;3.88;1.92;;;17.00;3.00;;;;;;5048899;28;20228;-82
2022/03/18 12:58:58;;;;;;;3.83;1.98;;;16.70;5.30;;;;;;5041694;28;20765;-82
2022/03/18 13:01:27;;;;;;;2.70;1.83;;;16.80;1.40;;;;;;5050107;28;20196;-82
2022/03/18 13:03:55;;;;;;;2.72;1.55;;;17.10;1.40;;;;;;5047515;28;20200;-82
2022/03/18 13:06:27;;;;;;;3.30;1.80;;;17.50;1.80;;;;;;5050925;28;20196;-82
2022/03/18 13:09:02;;;;;;;3.15;1.73;;;17.60;2.60;;;;;;5052551;28;20236;-81
2022/03/18 13:11:35;;;;;;;3.38;1.52;;;17.40;2.30;;;;;;5052798;28;20223;-82
2022/03/18 13:14:04;;;;;;;5.53;2.05;;;17.70;1.00;;;;;;5045077;28;20215;-80
2022/03/18 13:16:38;;;;;;;3.88;1.80;;;17.50;1.00;;;;;;5042969;28;20211;-81
2022/03/18 13:19:07;;;;;;;2.65;1.73;;;17.50;2.40;;;;;;5035718;28;20685;-81
2022/03/18 13:21:41;;;;;;;3.13;2.08;;;17.10;1.00;;;;;;5049211;28;20203;-81
2022/03/18 13:24:12;;;;;;;2.60;1.80;;;17.20;2.30;;;;;;5053099;28;20265;-81
2022/03/18 13:26:43;;;;;;;2.85;1.90;;;16.90;1.00;;;;;;5053505;28;20200;-80